createdAt,value
2023-03-03T00:01:43.393Z,53.63
2023-03-03T00:04:11.117Z,56.55
2023-03-03T00:06:38.623Z,52.08
2023-03-03T00:09:08.948Z,39.10
2023-03-03T00:11:39.332Z,50.45
2023-03-03T00:14:23.143Z,44.95
2023-03-03T00:17:06.953Z,54.17
2023-03-03T00:22:40.796Z,54.28
2023-03-03T00:25:20.519Z,51.72
2023-03-03T00:27:48.174Z,50.30
2023-03-03T00:30:33.694Z,53.70
2023-03-03T00:33:01.152Z,43.38
2023-03-03T00:35:35.872Z,51.75
2023-03-03T00:38:11.779Z,45.65
2023-03-03T00:40:40.684Z,47.67
2023-03-03T00:43:29.090Z,46.40
2023-03-03T00:45:57.872Z,56.35
2023-03-03T00:51:46.914Z,41.92
2023-03-03T00:54:16.455Z,39.40
2023-03-03T00:56:44.146Z,37.90
2023-03-03T00:59:12.647Z,34.13
2023-03-03T01:01:41.365Z,31.55
2023-03-03T01:04:11.432Z,29.52
2023-03-03T01:06:38.894Z,34.53
2023-03-03T01:09:08.611Z,33.67
2023-03-03T01:11:35.917Z,45.47
2023-03-03T01:14:05.702Z,45.72
2023-03-03T01:16:33.349Z,41.17
2023-03-03T01:19:00.829Z,47.53
2023-03-03T01:21:30.236Z,47.45
2023-03-03T01:23:57.776Z,48.42
2023-03-03T01:26:27.792Z,44.25
2023-03-03T01:28:55.591Z,51.10
2023-03-03T01:31:26.313Z,52.03
2023-03-03T01:33:53.683Z,49.20
2023-03-03T01:36:25.140Z,53.72
2023-03-03T01:38:52.837Z,42.25
2023-03-03T01:41:20.538Z,51.10
2023-03-03T01:43:49.696Z,49.78
2023-03-03T01:46:23.178Z,47.25
2023-03-03T01:48:50.900Z,47.47
2023-03-03T01:51:26.993Z,54.78
2023-03-03T01:53:56.023Z,55.63
2023-03-03T01:56:23.622Z,59.67
2023-03-03T01:58:54.024Z,50.40
2023-03-03T02:01:23.103Z,61.45
2023-03-03T02:03:51.658Z,63.55
2023-03-03T02:06:20.659Z,53.67
2023-03-03T02:08:48.143Z,60.08
2023-03-03T02:11:16.109Z,47.92
2023-03-03T02:13:43.492Z,45.97
2023-03-03T02:16:13.494Z,54.63
2023-03-03T02:18:41.068Z,47.45
2023-03-03T02:21:11.486Z,56.05
2023-03-03T02:23:42.006Z,48.83
2023-03-03T02:26:09.467Z,57.50
2023-03-03T02:28:37.664Z,60.13
2023-03-03T02:31:07.134Z,60.97
2023-03-03T02:33:34.566Z,61.63
2023-03-03T02:36:01.911Z,54.45
2023-03-03T02:38:45.205Z,51.88
2023-03-03T02:41:12.741Z,54.42
2023-03-03T02:43:43.254Z,54.25
2023-03-03T02:46:10.705Z,57.15
2023-03-03T02:48:47.195Z,55.95
2023-03-03T02:51:14.830Z,62.78
2023-03-03T02:53:43.550Z,53.53
2023-03-03T02:56:11.112Z,58.80
2023-03-03T02:58:38.881Z,60.05
2023-03-03T03:01:11.071Z,60.92
2023-03-03T03:03:38.780Z,61.80
2023-03-03T03:06:06.285Z,56.80
2023-03-03T03:08:36.521Z,78.65
2023-03-03T03:11:08.963Z,58.17
2023-03-03T03:13:36.453Z,48.63
2023-03-03T03:16:04.008Z,61.22
2023-03-03T03:18:34.103Z,68.32
2023-03-03T03:21:11.404Z,57.28
2023-03-03T03:23:39.365Z,64.07
2023-03-03T03:26:07.164Z,56.35
2023-03-03T03:28:34.678Z,66.65
2023-03-03T03:31:02.171Z,65.90
2023-03-03T03:33:29.699Z,60.70
2023-03-03T03:35:57.627Z,64.00
2023-03-03T03:38:29.936Z,75.43
2023-03-03T03:40:57.264Z,56.33
2023-03-03T03:43:24.590Z,65.90
2023-03-03T03:45:54.784Z,61.88
2023-03-03T03:48:22.660Z,64.53
2023-03-03T03:50:50.670Z,57.65
2023-03-03T03:53:18.394Z,65.93
2023-03-03T03:55:46.453Z,72.28
2023-03-03T03:58:14.790Z,69.35
2023-03-03T04:00:42.931Z,68.50
2023-03-03T04:03:11.064Z,73.53
2023-03-03T04:05:38.681Z,72.65
2023-03-03T04:08:06.252Z,70.10
2023-03-03T04:10:33.653Z,65.20
2023-03-03T04:13:01.183Z,61.08
2023-03-03T04:15:28.683Z,62.35
2023-03-03T04:17:56.109Z,65.10
2023-03-03T04:20:27.430Z,65.35
2023-03-03T04:23:01.042Z,69.97
2023-03-03T04:25:32.328Z,67.15
2023-03-03T04:27:59.717Z,62.72
2023-03-03T04:30:27.407Z,65.03
2023-03-03T04:32:57.011Z,64.78
2023-03-03T04:35:24.491Z,74.53
2023-03-03T04:37:56.986Z,61.50
2023-03-03T04:40:24.404Z,64.90
2023-03-03T04:42:54.972Z,62.65
2023-03-03T04:45:22.642Z,54.70
2023-03-03T04:47:50.067Z,68.03
2023-03-03T04:50:21.301Z,69.50
2023-03-03T04:52:48.698Z,72.63
2023-03-03T04:55:17.003Z,63.47
2023-03-03T04:57:46.704Z,62.72
2023-03-03T05:00:14.517Z,58.30
2023-03-03T05:02:47.275Z,50.90
2023-03-03T05:05:17.014Z,53.47
2023-03-03T05:07:51.940Z,54.97
2023-03-03T05:10:19.442Z,65.28
2023-03-03T05:12:47.222Z,52.22
2023-03-03T05:15:14.729Z,52.90
2023-03-03T05:24:49.771Z,66.60
2023-03-03T05:35:51.953Z,63.10
2023-03-03T05:38:20.075Z,64.90
2023-03-03T05:41:13.428Z,85.07
2023-03-03T05:57:04.860Z,76.38
2023-03-03T05:59:32.528Z,75.05
2023-03-03T06:02:04.325Z,78.80
2023-03-03T06:04:35.994Z,83.78
2023-03-03T06:07:03.495Z,77.40
2023-03-03T06:09:31.038Z,75.18
2023-03-03T06:12:01.313Z,79.35
2023-03-03T06:14:33.155Z,77.30
2023-03-03T06:17:06.241Z,85.85
2023-03-03T06:24:49.491Z,67.82
2023-03-03T06:27:38.314Z,65.78
2023-03-03T06:30:08.358Z,56.17
2023-03-03T06:32:44.477Z,51.80
2023-03-03T06:35:18.566Z,58.00
2023-03-03T06:37:46.046Z,56.17
2023-03-03T06:40:17.144Z,52.33
2023-03-03T06:42:46.950Z,56.70
2023-03-03T06:45:14.865Z,56.42
2023-03-03T06:47:42.496Z,66.55
2023-03-03T06:50:13.124Z,51.78
2023-03-03T06:52:40.457Z,55.97
2023-03-03T06:55:12.416Z,52.47
2023-03-03T06:57:42.843Z,53.63
2023-03-03T07:00:16.793Z,54.42
2023-03-03T07:02:44.168Z,54.95
2023-03-03T07:05:18.964Z,57.13
2023-03-03T07:07:46.445Z,53.88
2023-03-03T07:10:27.386Z,53.90
2023-03-03T07:12:54.764Z,57.60
2023-03-03T07:15:34.531Z,50.22
2023-03-03T07:18:02.636Z,56.20
2023-03-03T07:20:42.037Z,53.92
2023-03-03T07:23:26.723Z,61.03
2023-03-03T07:25:54.230Z,57.47
2023-03-03T07:28:24.627Z,67.15
2023-03-03T07:30:52.498Z,57.75
2023-03-03T07:33:25.175Z,63.88
2023-03-03T07:35:56.113Z,62.78
2023-03-03T07:38:29.906Z,57.80
2023-03-03T07:40:59.251Z,55.00
2023-03-03T07:43:40.821Z,54.55
2023-03-03T07:46:11.326Z,64.43
2023-03-03T07:48:52.186Z,56.08
2023-03-03T07:51:22.759Z,59.15
2023-03-03T07:53:52.575Z,54.35
2023-03-03T07:56:28.214Z,53.83
2023-03-03T07:58:56.283Z,57.45
2023-03-03T08:01:27.137Z,55.95
2023-03-03T08:03:59.633Z,68.03
2023-03-03T08:06:46.392Z,56.42
2023-03-03T08:09:13.996Z,52.75
2023-03-03T08:11:52.707Z,49.92
2023-03-03T08:14:25.887Z,55.58
2023-03-03T08:19:31.250Z,56.97
2023-03-03T08:22:03.653Z,57.95
2023-03-03T08:24:31.082Z,53.55
2023-03-03T08:26:58.324Z,62.55
2023-03-03T08:29:25.608Z,55.97
2023-03-03T08:31:52.933Z,53.00
2023-03-03T08:34:20.705Z,45.00
2023-03-03T08:36:48.059Z,51.65
2023-03-03T08:39:15.339Z,46.90
2023-03-03T08:41:44.475Z,54.50
2023-03-03T08:44:12.079Z,54.05
2023-03-03T08:46:39.430Z,47.17
2023-03-03T08:49:06.924Z,49.55
2023-03-03T08:51:34.954Z,53.88
2023-03-03T08:54:04.198Z,48.22
2023-03-03T08:56:31.526Z,47.75
2023-03-03T08:59:02.550Z,58.42
2023-03-03T09:01:31.115Z,49.72
2023-03-03T09:04:00.821Z,54.28
2023-03-03T09:06:28.474Z,57.85
2023-03-03T09:08:56.244Z,48.90
2023-03-03T09:11:26.573Z,51.20
2023-03-03T09:14:00.397Z,49.58
2023-03-03T09:16:28.360Z,56.58
2023-03-03T09:18:56.311Z,52.05
2023-03-03T09:21:25.177Z,47.13
2023-03-03T09:23:59.628Z,54.58
2023-03-03T09:26:45.544Z,46.05
2023-03-03T09:29:16.057Z,53.58
2023-03-03T09:31:44.918Z,63.22
2023-03-03T09:34:23.614Z,51.33
2023-03-03T09:36:54.269Z,50.65
2023-03-03T09:39:26.459Z,53.47
2023-03-03T09:42:13.921Z,45.25
2023-03-03T09:44:45.948Z,48.25
2023-03-03T09:47:32.167Z,48.92
2023-03-03T09:50:02.377Z,48.65
2023-03-03T09:52:39.637Z,43.78
2023-03-03T09:55:27.364Z,52.95
2023-03-03T09:58:09.986Z,46.08
2023-03-03T10:00:50.676Z,42.75
2023-03-03T10:03:21.304Z,47.65
2023-03-03T10:05:48.756Z,43.90
2023-03-03T10:08:27.169Z,51.30
2023-03-03T10:11:01.058Z,49.45
2023-03-03T10:13:28.643Z,39.65
2023-03-03T10:16:08.392Z,47.58
2023-03-03T10:18:54.234Z,50.45
2023-03-03T10:21:30.851Z,46.47
2023-03-03T10:24:06.762Z,44.95
2023-03-03T10:27:11.777Z,48.65
2023-03-03T10:29:40.589Z,50.33
2023-03-03T10:32:17.361Z,50.20
2023-03-03T10:35:08.965Z,42.47
2023-03-03T10:37:54.954Z,49.25
2023-03-03T10:40:28.611Z,41.47
2023-03-03T10:42:55.855Z,48.83
2023-03-03T10:45:26.374Z,47.63
2023-03-03T10:47:56.697Z,48.97
2023-03-03T10:50:27.447Z,49.47
2023-03-03T10:53:03.098Z,50.90
2023-03-03T10:55:39.702Z,47.95
2023-03-03T10:58:13.246Z,52.45
2023-03-03T11:00:44.787Z,46.20
2023-03-03T11:03:15.306Z,45.10
2023-03-03T11:06:05.678Z,44.45
2023-03-03T11:08:37.372Z,44.50
2023-03-03T11:11:13.749Z,42.05
2023-03-03T11:14:04.708Z,45.78
2023-03-03T11:16:34.890Z,49.92
2023-03-03T11:19:17.870Z,39.92
2023-03-03T11:22:08.792Z,47.20
2023-03-03T11:24:46.027Z,46.35
2023-03-03T11:27:39.905Z,38.13
2023-03-03T11:30:12.640Z,36.75
2023-03-03T11:36:10.894Z,36.42
2023-03-03T11:39:00.255Z,41.47
2023-03-03T11:41:31.391Z,31.95
2023-03-03T11:44:27.616Z,33.28
2023-03-03T11:46:59.345Z,37.28
2023-03-03T12:10:41.288Z,35.08
2023-03-03T12:13:16.656Z,38.20
2023-03-03T12:15:47.003Z,41.03
2023-03-03T12:18:20.419Z,34.75
2023-03-03T12:21:02.806Z,28.27
2023-03-03T12:23:49.385Z,30.30
2023-03-03T12:26:19.800Z,32.00
2023-03-03T12:29:00.036Z,30.05
2023-03-03T12:31:35.568Z,31.27
2023-03-03T12:34:09.384Z,32.00
2023-03-03T12:37:00.242Z,31.80
2023-03-03T12:39:50.917Z,27.83
2023-03-03T12:42:26.746Z,28.48
2023-03-03T12:45:06.340Z,29.52
2023-03-03T12:47:39.542Z,24.75
2023-03-03T12:50:25.436Z,28.30
2023-03-03T12:53:02.763Z,31.77
2023-03-03T12:55:34.021Z,26.58
2023-03-03T12:58:01.497Z,26.77
2023-03-03T13:00:40.869Z,29.30
2023-03-03T13:03:20.355Z,28.70
2023-03-03T13:05:54.201Z,26.42
2023-03-03T13:08:54.079Z,24.02
2023-03-03T13:11:33.748Z,19.98
2023-03-03T13:14:03.972Z,22.33
2023-03-03T13:16:57.735Z,23.92
2023-03-03T13:19:27.945Z,26.27
2023-03-03T13:22:08.587Z,21.40
2023-03-03T13:24:38.058Z,23.02
2023-03-03T13:27:11.700Z,23.33
2023-03-03T13:29:52.724Z,20.00
2023-03-03T13:32:34.153Z,23.08
2023-03-03T13:35:04.375Z,22.55
2023-03-03T13:37:34.594Z,22.10
2023-03-03T13:40:04.088Z,25.08
2023-03-03T13:42:43.284Z,23.77
2023-03-03T13:45:28.855Z,25.85
2023-03-03T13:48:00.967Z,22.73
2023-03-03T13:50:47.911Z,19.45
2023-03-03T13:53:21.277Z,24.23
2023-03-03T13:55:59.217Z,22.58
2023-03-03T13:58:36.841Z,23.77
2023-03-03T14:01:04.131Z,25.13
2023-03-03T14:03:42.082Z,25.40
2023-03-03T14:06:20.805Z,21.83
2023-03-03T14:08:51.186Z,28.65
2023-03-03T14:11:27.325Z,21.83
2023-03-03T14:14:00.277Z,23.67
2023-03-03T14:16:39.789Z,22.90
2023-03-03T14:19:11.736Z,26.08
2023-03-03T14:21:46.777Z,22.35
2023-03-03T14:24:21.760Z,20.13
2023-03-03T14:26:51.015Z,22.00
2023-03-03T14:29:19.073Z,23.80
2023-03-03T14:31:46.314Z,24.63
2023-03-03T14:34:27.480Z,24.75
2023-03-03T14:37:00.596Z,29.02
2023-03-03T14:39:35.761Z,27.85
2023-03-03T14:42:11.741Z,24.00
2023-03-03T14:44:51.471Z,28.25
2023-03-03T14:47:23.753Z,31.25
2023-03-03T14:49:51.691Z,31.60
2023-03-03T14:52:26.676Z,31.45
2023-03-03T14:54:55.740Z,32.83
2023-03-03T14:57:41.671Z,32.60
2023-03-03T15:00:16.367Z,36.10
2023-03-03T15:02:45.244Z,36.08
2023-03-03T15:05:19.776Z,28.65
2023-03-03T15:07:48.317Z,35.80
2023-03-03T15:10:26.992Z,34.20
2023-03-03T15:12:54.472Z,29.60
2023-03-03T15:15:23.267Z,31.40
2023-03-03T15:17:50.518Z,37.55
2023-03-03T15:20:38.137Z,30.48
2023-03-03T15:23:17.666Z,29.48
2023-03-03T15:25:58.935Z,36.33
2023-03-03T15:28:45.070Z,29.83
2023-03-03T15:31:31.245Z,32.15
2023-03-03T15:34:03.412Z,29.73
2023-03-03T15:36:30.757Z,29.23
2023-03-03T15:39:12.800Z,34.30
2023-03-03T15:41:59.370Z,34.25
2023-03-03T15:44:29.977Z,34.97
2023-03-03T15:47:17.601Z,27.20
2023-03-03T15:49:54.749Z,32.25
2023-03-03T15:52:28.640Z,31.10
2023-03-03T15:54:55.940Z,29.80
2023-03-03T15:57:29.412Z,31.40
2023-03-03T16:00:09.185Z,29.88
2023-03-03T16:02:36.590Z,30.55
2023-03-03T16:05:09.399Z,31.17
2023-03-03T16:07:43.124Z,32.28
2023-03-03T16:10:22.614Z,30.90
2023-03-03T16:13:08.716Z,30.33
2023-03-03T16:15:46.969Z,31.48
2023-03-03T16:18:17.410Z,29.98
2023-03-03T16:20:50.821Z,29.98
2023-03-03T16:23:30.420Z,30.80
2023-03-03T16:26:00.776Z,28.38
2023-03-03T16:28:40.155Z,29.52
2023-03-03T16:31:11.002Z,26.60
2023-03-03T16:33:44.189Z,27.55
2023-03-03T16:36:11.624Z,30.15
2023-03-03T16:38:38.992Z,29.15
2023-03-03T16:41:10.081Z,34.08
2023-03-03T16:43:52.723Z,34.45
2023-03-03T16:46:30.894Z,35.13
2023-03-03T16:48:58.151Z,32.97
2023-03-03T16:51:31.302Z,38.83
2023-03-03T16:56:44.760Z,40.85
2023-03-03T16:59:21.193Z,35.42
2023-03-03T17:01:48.371Z,42.83
2023-03-03T17:04:37.492Z,41.67
2023-03-03T17:07:07.644Z,43.90
2023-03-03T17:09:34.872Z,39.55
2023-03-03T17:12:02.589Z,35.75
2023-03-03T17:14:49.096Z,35.78
2023-03-03T17:17:20.961Z,32.63
2023-03-03T17:20:00.820Z,59.92
2023-03-03T17:22:34.046Z,32.35
2023-03-03T17:27:35.100Z,39.05
2023-03-03T17:30:02.357Z,39.28
2023-03-03T17:32:32.792Z,39.72
2023-03-03T17:35:15.537Z,46.40
2023-03-03T17:38:05.783Z,37.53
2023-03-03T17:40:32.979Z,47.08
2023-03-03T17:43:03.149Z,40.25
2023-03-03T17:45:35.153Z,40.80
2023-03-03T17:48:05.446Z,45.05
2023-03-03T17:50:51.174Z,49.40
2023-03-03T17:53:37.102Z,45.38
2023-03-03T17:56:04.631Z,44.85
2023-03-03T17:58:35.149Z,39.90
2023-03-03T18:01:14.903Z,46.25
2023-03-03T18:04:00.594Z,43.78
2023-03-03T18:06:37.108Z,42.75
2023-03-03T18:09:30.759Z,46.83
2023-03-03T18:14:29.706Z,49.03
2023-03-03T18:16:59.683Z,51.30
2023-03-03T18:19:33.027Z,54.08
2023-03-03T18:22:08.257Z,49.83
2023-03-03T18:24:38.292Z,54.25
2023-03-03T18:27:24.366Z,57.75
2023-03-03T18:30:10.407Z,46.17
2023-03-03T18:32:56.262Z,51.78
2023-03-03T18:35:37.631Z,52.50
2023-03-03T18:38:17.394Z,48.80
2023-03-03T18:40:51.684Z,53.25
2023-03-03T18:43:37.753Z,51.63
2023-03-03T18:46:05.063Z,57.38
2023-03-03T18:48:51.074Z,55.17
2023-03-03T18:51:37.102Z,58.72
2023-03-03T18:54:17.276Z,48.67
2023-03-03T18:56:47.461Z,66.57
2023-03-03T18:59:47.087Z,52.28
2023-03-03T19:02:14.298Z,49.65
2023-03-03T19:04:44.601Z,52.13
2023-03-03T19:07:11.892Z,52.88
2023-03-03T19:09:58.883Z,51.15
2023-03-03T19:12:47.384Z,52.25
2023-03-03T19:15:30.077Z,47.95
2023-03-03T19:18:15.780Z,39.05
2023-03-03T19:20:45.139Z,41.80
2023-03-03T19:23:20.063Z,39.72
2023-03-03T19:25:47.271Z,43.13
2023-03-03T19:28:14.562Z,34.40
2023-03-03T19:31:00.309Z,33.60
2023-03-03T19:33:27.669Z,33.15
2023-03-03T19:36:11.579Z,38.58
2023-03-03T19:38:55.662Z,30.00
2023-03-03T19:41:22.910Z,34.42
2023-03-03T19:43:59.471Z,31.98
2023-03-03T19:46:42.115Z,32.22
2023-03-03T19:49:28.276Z,26.00
2023-03-03T19:52:28.843Z,24.20
2023-03-03T19:55:09.899Z,27.13
2023-03-03T19:57:47.287Z,28.70
2023-03-03T20:00:33.215Z,26.77
2023-03-03T20:03:07.728Z,29.05
2023-03-03T20:05:49.301Z,27.25
2023-03-03T20:08:22.170Z,24.23
2023-03-03T20:10:56.916Z,22.75
2023-03-03T20:13:39.357Z,24.70
2023-03-03T20:16:26.813Z,25.90
2023-03-03T20:19:06.726Z,30.27
2023-03-03T20:21:41.370Z,30.30
2023-03-03T20:24:14.684Z,31.27
2023-03-03T20:26:41.947Z,22.35
2023-03-03T20:29:15.253Z,25.10
2023-03-03T20:32:02.898Z,25.17
2023-03-03T20:34:42.440Z,22.27
2023-03-03T20:37:23.172Z,24.45
2023-03-03T20:40:00.039Z,18.00
2023-03-03T20:42:50.708Z,20.70
2023-03-03T20:45:27.939Z,15.85
2023-03-03T20:48:13.613Z,16.02
2023-03-03T20:50:50.822Z,16.52
2023-03-03T20:53:18.052Z,13.48
2023-03-03T20:56:00.626Z,11.40
2023-03-03T20:58:46.876Z,12.77
2023-03-03T21:01:16.143Z,11.70
2023-03-03T21:03:45.299Z,11.70
2023-03-03T21:06:18.119Z,14.32
2023-03-03T21:08:53.490Z,15.60
2023-03-03T21:11:25.141Z,20.60
2023-03-03T21:13:54.412Z,13.43
2023-03-03T21:16:21.692Z,16.10
2023-03-03T21:19:10.657Z,13.02
2023-03-03T21:21:39.089Z,12.40
2023-03-03T21:24:07.544Z,15.10
2023-03-03T21:26:54.969Z,13.70
2023-03-03T21:29:23.825Z,15.32
2023-03-03T21:32:04.795Z,12.40
2023-03-03T21:34:35.447Z,21.67
2023-03-03T21:37:03.839Z,13.93
2023-03-03T21:39:36.010Z,12.48
2023-03-03T21:42:07.874Z,15.82
2023-03-03T21:44:36.699Z,8.93
2023-03-03T21:47:05.158Z,16.88
2023-03-03T21:49:32.704Z,11.68
2023-03-03T21:51:59.960Z,17.92
2023-03-03T21:54:27.343Z,13.80
2023-03-03T21:56:54.708Z,21.10
2023-03-03T21:59:21.952Z,17.02
2023-03-03T22:01:49.239Z,19.35
2023-03-03T22:04:16.559Z,12.55
2023-03-03T22:06:43.803Z,11.73
2023-03-03T22:09:11.089Z,16.45
2023-03-03T22:11:41.349Z,12.63
2023-03-03T22:14:08.851Z,18.80
2023-03-03T22:16:36.060Z,14.10
2023-03-03T22:19:03.687Z,12.82
2023-03-03T22:21:31.622Z,13.00
2023-03-03T22:23:59.527Z,12.68
2023-03-03T22:26:26.730Z,13.75
2023-03-03T22:28:54.335Z,11.68
2023-03-03T22:31:22.063Z,12.38
2023-03-03T22:33:49.744Z,22.15
2023-03-03T22:36:17.145Z,17.48
2023-03-03T22:38:44.428Z,12.60
2023-03-03T22:41:11.791Z,14.27
2023-03-03T22:43:39.068Z,11.82
2023-03-03T22:46:06.412Z,13.02
2023-03-03T22:48:33.670Z,18.38
2023-03-03T22:51:00.931Z,10.35
2023-03-03T22:53:28.378Z,11.85
2023-03-03T22:55:55.719Z,15.18
2023-03-03T22:58:25.603Z,18.40
2023-03-03T23:00:53.945Z,8.70
2023-03-03T23:03:21.458Z,9.52
2023-03-03T23:05:51.605Z,14.30
2023-03-03T23:08:20.376Z,11.95
2023-03-03T23:10:47.820Z,15.70
2023-03-03T23:13:15.206Z,12.73
2023-03-03T23:15:42.481Z,14.90
2023-03-03T23:18:09.756Z,13.98
2023-03-03T23:20:37.460Z,15.48
2023-03-03T23:23:05.001Z,17.73
2023-03-03T23:25:32.226Z,12.82
2023-03-03T23:28:02.166Z,13.25
2023-03-03T23:30:29.419Z,11.80
2023-03-03T23:32:56.643Z,10.85
2023-03-03T23:35:23.899Z,15.98
2023-03-03T23:37:51.297Z,18.67
2023-03-03T23:40:18.563Z,18.05
2023-03-03T23:42:46.010Z,14.40
2023-03-03T23:45:14.226Z,13.50
2023-03-03T23:47:41.567Z,14.77
2023-03-03T23:50:10.242Z,16.52
2023-03-03T23:52:37.514Z,15.68
2023-03-03T23:55:05.957Z,11.80
2023-03-03T23:57:33.308Z,14.45
